Погода Акрина неделю

Акри, Бразилия

13 - 19 июля
  • 13июля
    Сегодня
    +15°
    +25°
    Практически безоблачно
    ВремяПогодаТемператураВлажностьДавлениеВетер, м/сВероятность осадков
    01:00Облачно с прояснениями+17°C58 %751 мм3.6 м/с5 %
    04:00Ясно и безоблачно+14°C58 %751 мм3.7 м/с5 %
    07:00Небольшая облачность+15°C60 %752 мм3.3 м/с5 %
    10:00Практически безоблачно+20°C49 %752 мм3.5 м/с5 %
    13:00Практически безоблачно+24°C44 %750 мм3.0 м/с5 %
    16:00Ясно и безоблачно+24°C47 %748 мм2.7 м/с5 %
    19:00Ясно и безоблачно+20°C63 %749 мм2.5 м/с5 %
    22:00Практически безоблачно+18°C63 %750 мм2.8 м/с5 %
  • 14июля
    Воскресенье
    +15°
    +27°
    Небольшая облачность
    ВремяПогодаТемператураВлажностьДавлениеВетер, м/сВероятность осадков
    01:00Облачно с прояснениями+17°C65 %750 мм2.6 м/с5 %
    04:00Облачно с прояснениями+15°C66 %750 мм3.0 м/с5 %
    07:00Облачно с прояснениями+16°C64 %751 мм2.7 м/с5 %
    10:00Практически безоблачно+22°C49 %752 мм3.4 м/с5 %
    13:00Небольшая облачность+26°C43 %749 мм2.7 м/с5 %
    16:00Облачно с прояснениями+26°C47 %747 мм2.1 м/с5 %
    19:00Ясно и безоблачно+21°C64 %748 мм2.7 м/с5 %
    22:00Практически безоблачно+19°C63 %749 мм2.8 м/с5 %
  • 15июля
    Понедельник
    +15°
    +28°
    Ясно и безоблачно
    ВремяПогодаТемператураВлажностьДавлениеВетер, м/сВероятность осадков
    01:00Ясно и безоблачно+17°C66 %749 мм2.6 м/с5 %
    04:00Ясно и безоблачно+15°C66 %750 мм2.8 м/с5 %
    07:00Ясно и безоблачно+17°C65 %751 мм2.4 м/с5 %
    10:00Ясно и безоблачно+22°C49 %752 мм2.9 м/с5 %
    13:00Ясно и безоблачно+26°C41 %750 мм2.4 м/с5 %
    16:00Ясно и безоблачно+27°C45 %748 мм2.0 м/с5 %
    19:00Ясно и безоблачно+21°C63 %749 мм2.7 м/с5 %
    22:00Ясно и безоблачно+19°C66 %750 мм2.9 м/с5 %
  • 16июля
    Вторник
    +15°
    +28°
    Ясно и безоблачно
    ВремяПогодаТемператураВлажностьДавлениеВетер, м/сВероятность осадков
    01:00Ясно и безоблачно+17°C72 %750 мм2.6 м/с5 %
    04:00Ясно и безоблачно+16°C70 %750 мм2.6 м/с5 %
    07:00Ясно и безоблачно+17°C66 %751 мм2.6 м/с5 %
    10:00Ясно и безоблачно+23°C49 %752 мм2.7 м/с5 %
    13:00Ясно и безоблачно+27°C42 %749 мм2.1 м/с5 %
    16:00Ясно и безоблачно+28°C47 %748 мм1.6 м/с5 %
    19:00Ясно и безоблачно+22°C63 %748 мм3.0 м/с5 %
    22:00Ясно и безоблачно+19°C71 %749 мм2.5 м/с5 %
Мы используем cookies
Соглашаюсь